createdAt,value
2022-11-18T00:00:10.214Z,960.78
2022-11-18T00:00:39.672Z,960.89
2022-11-18T00:01:11.365Z,960.89
2022-11-18T00:01:41.227Z,960.78
2022-11-18T00:02:12.240Z,960.78
2022-11-18T00:02:48.383Z,960.99
2022-11-18T00:03:14.032Z,960.99
2022-11-18T00:03:45.373Z,960.78
2022-11-18T00:04:48.236Z,960.68
2022-11-18T00:05:19.115Z,960.68
2022-11-18T00:05:49.860Z,960.78
2022-11-18T00:06:20.627Z,960.78
2022-11-18T00:06:51.365Z,960.68
2022-11-18T00:07:22.110Z,960.68
2022-11-18T00:07:53.203Z,960.78
2022-11-18T00:08:24.349Z,960.78
2022-11-18T00:08:55.316Z,960.78
2022-11-18T00:09:26.275Z,960.78
2022-11-18T00:09:58.183Z,960.78
2022-11-18T00:10:29.251Z,960.78
2022-11-18T00:10:59.842Z,960.62
2022-11-18T00:11:30.219Z,960.68
2022-11-18T00:12:01.238Z,960.68
2022-11-18T00:12:32.285Z,960.68
2022-11-18T00:13:03.404Z,960.68
2022-11-18T00:13:34.328Z,960.51
2022-11-18T00:14:05.553Z,960.51
2022-11-18T00:14:36.032Z,960.62
2022-11-18T00:15:09.228Z,960.62
2022-11-18T00:15:39.237Z,960.68
2022-11-18T00:16:10.091Z,960.68
2022-11-18T00:16:40.287Z,960.68
2022-11-18T00:17:11.545Z,960.68
2022-11-18T00:17:42.055Z,960.68
2022-11-18T00:18:13.294Z,960.68
2022-11-18T00:18:44.279Z,960.68
2022-11-18T00:19:15.760Z,960.68
2022-11-18T00:19:46.281Z,960.68
2022-11-18T00:20:17.512Z,960.68
2022-11-18T00:21:19.941Z,960.41
2022-11-18T00:21:50.348Z,960.51
2022-11-18T00:22:25.538Z,960.51
2022-11-18T00:22:52.396Z,960.62
2022-11-18T00:23:23.726Z,960.62
2022-11-18T00:23:54.517Z,960.62
2022-11-18T00:24:25.512Z,960.62
2022-11-18T00:24:56.767Z,960.62
2022-11-18T00:25:28.063Z,960.62
2022-11-18T00:25:59.241Z,960.68
2022-11-18T00:26:29.956Z,960.68
2022-11-18T00:27:00.439Z,960.68
2022-11-18T00:27:31.333Z,960.51
2022-11-18T00:28:02.325Z,960.51
2022-11-18T00:28:33.313Z,960.51
2022-11-18T00:29:04.534Z,960.51
2022-11-18T00:29:35.363Z,960.68
2022-11-18T00:30:06.843Z,960.68
2022-11-18T00:30:37.441Z,960.68
2022-11-18T00:31:09.557Z,960.68
2022-11-18T00:31:58.431Z,960.62
2022-11-18T00:32:10.473Z,960.62
2022-11-18T00:32:41.715Z,960.62
2022-11-18T00:33:27.391Z,960.62
2022-11-18T00:33:45.926Z,960.68
2022-11-18T00:34:14.270Z,960.68
2022-11-18T00:35:02.391Z,960.51
2022-11-18T00:35:16.908Z,960.51
2022-11-18T00:35:47.403Z,960.78
2022-11-18T00:36:19.342Z,960.78
2022-11-18T00:36:49.952Z,960.51
2022-11-18T00:37:20.821Z,960.51
2022-11-18T00:37:51.414Z,960.68
2022-11-18T00:38:27.539Z,960.68
2022-11-18T00:38:53.860Z,960.41
2022-11-18T00:39:24.414Z,960.41
2022-11-18T00:39:55.631Z,960.62
2022-11-18T00:40:26.424Z,960.62
2022-11-18T00:40:57.309Z,960.51
2022-11-18T00:41:29.272Z,960.51
2022-11-18T00:42:00.102Z,960.62
2022-11-18T00:42:30.559Z,960.41
2022-11-18T00:43:01.186Z,960.41
2022-11-18T00:43:32.326Z,960.62
2022-11-18T00:44:21.116Z,960.62
2022-11-18T00:44:34.675Z,960.51
2022-11-18T00:45:05.905Z,960.51
2022-11-18T00:45:36.419Z,960.68
2022-11-18T00:46:07.619Z,960.68
2022-11-18T00:46:39.542Z,960.41
2022-11-18T00:47:10.467Z,960.41
2022-11-18T00:47:40.467Z,960.41
2022-11-18T00:48:11.964Z,960.41
2022-11-18T00:48:42.425Z,960.41
2022-11-18T00:49:13.505Z,960.41
2022-11-18T00:49:44.611Z,960.51
2022-11-18T00:50:17.536Z,960.51
2022-11-18T00:50:46.460Z,960.51
2022-11-18T00:51:17.299Z,960.51
2022-11-18T00:51:49.180Z,960.62
2022-11-18T00:52:19.888Z,960.62
2022-11-18T00:52:50.993Z,960.62
2022-11-18T00:53:21.368Z,960.62
2022-11-18T00:53:52.431Z,960.62
2022-11-18T00:54:23.486Z,960.62
2022-11-18T00:54:54.668Z,960.51
2022-11-18T00:55:25.498Z,960.51
2022-11-18T00:55:56.473Z,960.62
2022-11-18T00:56:27.457Z,960.62
2022-11-18T00:56:58.864Z,960.62
2022-11-18T00:57:30.357Z,960.68
2022-11-18T00:58:01.401Z,960.68
2022-11-18T00:58:31.486Z,960.51
2022-11-18T00:59:02.372Z,960.51
2022-11-18T00:59:33.527Z,960.68
2022-11-18T01:00:05.382Z,960.68
2022-11-18T01:00:35.360Z,960.51
2022-11-18T01:01:06.574Z,960.51
2022-11-18T01:01:37.598Z,960.62
2022-11-18T01:02:10.291Z,960.62
2022-11-18T01:02:40.272Z,960.68
2022-11-18T01:03:16.594Z,960.68
2022-11-18T01:03:41.307Z,960.78
2022-11-18T01:04:13.039Z,960.78
2022-11-18T01:04:43.637Z,960.41
2022-11-18T01:05:14.810Z,960.41
2022-11-18T01:05:45.577Z,960.51
2022-11-18T01:06:16.738Z,960.51
2022-11-18T01:07:05.114Z,960.62
2022-11-18T01:07:19.815Z,960.62
2022-11-18T01:07:51.003Z,960.62
2022-11-18T01:08:23.940Z,960.62
2022-11-18T01:08:52.678Z,960.62
2022-11-18T01:09:39.128Z,960.62
2022-11-18T01:09:53.612Z,960.78
2022-11-18T01:10:24.498Z,960.78
2022-11-18T01:11:42.336Z,960.62
2022-11-18T01:11:57.650Z,960.62
2022-11-18T01:12:29.544Z,960.62
2022-11-18T01:13:34.721Z,960.78
2022-11-18T01:14:02.278Z,960.68
2022-11-18T01:14:32.863Z,960.62
2022-11-18T01:15:05.566Z,960.62
2022-11-18T01:15:34.826Z,960.62
2022-11-18T01:16:05.824Z,960.62
2022-11-18T01:16:36.561Z,960.41
2022-11-18T01:17:07.653Z,960.41
2022-11-18T01:17:39.286Z,960.62
2022-11-18T01:18:10.901Z,960.62
2022-11-18T01:18:45.315Z,960.68
2022-11-18T01:19:12.021Z,960.68
2022-11-18T01:19:42.855Z,960.51
2022-11-18T01:20:13.983Z,960.51
2022-11-18T01:20:47.906Z,960.68
2022-11-18T01:21:18.832Z,960.68
2022-11-18T01:21:46.689Z,960.62
2022-11-18T01:22:18.019Z,960.62
2022-11-18T01:22:49.115Z,960.62
2022-11-18T01:23:21.115Z,960.62
2022-11-18T01:23:51.932Z,960.51
2022-11-18T01:24:23.284Z,960.51
2022-11-18T01:24:52.990Z,960.78
2022-11-18T01:25:23.808Z,960.78
2022-11-18T01:25:54.956Z,960.41
2022-11-18T01:26:25.735Z,960.41
2022-11-18T01:26:56.870Z,960.62
2022-11-18T01:27:27.748Z,960.62
2022-11-18T01:28:04.924Z,960.51
2022-11-18T01:28:32.120Z,960.51
2022-11-18T01:29:02.505Z,960.51
2022-11-18T01:29:32.449Z,960.51
2022-11-18T01:30:22.957Z,960.51
2022-11-18T01:30:33.966Z,960.51
2022-11-18T01:31:05.713Z,960.51
2022-11-18T01:31:45.525Z,960.41
2022-11-18T01:32:25.091Z,960.41
2022-11-18T01:32:38.267Z,960.41
2022-11-18T01:34:21.444Z,960.41
2022-11-18T01:34:43.173Z,960.51
2022-11-18T01:35:13.557Z,960.51
2022-11-18T01:36:39.820Z,960.62
2022-11-18T01:36:46.177Z,960.62
2022-11-18T01:37:16.762Z,960.62
2022-11-18T01:37:48.130Z,960.51
2022-11-18T01:38:19.050Z,960.51
2022-11-18T01:38:51.068Z,960.62
2022-11-18T01:39:22.046Z,960.62
2022-11-18T01:39:57.278Z,960.68
2022-11-18T01:40:25.169Z,960.68
2022-11-18T01:40:55.791Z,960.51
2022-11-18T01:41:25.377Z,960.51
2022-11-18T01:41:56.138Z,960.41
2022-11-18T01:42:26.865Z,960.41
2022-11-18T01:42:58.188Z,960.41
2022-11-18T01:43:29.221Z,960.62
2022-11-18T01:44:01.061Z,960.62
2022-11-18T01:44:32.009Z,960.51
2022-11-18T01:45:03.067Z,960.51
2022-11-18T01:45:33.821Z,960.51
2022-11-18T01:46:04.200Z,960.51
2022-11-18T01:46:34.832Z,960.51
2022-11-18T01:47:05.964Z,960.51
2022-11-18T01:47:54.695Z,960.62
2022-11-18T01:48:08.620Z,960.62
2022-11-18T01:48:39.018Z,960.41
2022-11-18T01:49:10.411Z,960.41
2022-11-18T01:49:42.218Z,960.62
2022-11-18T01:50:20.845Z,960.62
2022-11-18T01:50:43.335Z,960.41
2022-11-18T01:51:14.846Z,960.41
2022-11-18T01:51:45.379Z,960.41
2022-11-18T01:52:16.151Z,960.41
2022-11-18T01:52:51.421Z,960.41
2022-11-18T01:53:17.860Z,960.41
2022-11-18T01:53:49.041Z,960.41
2022-11-18T01:54:20.705Z,960.41
2022-11-18T01:54:52.570Z,960.62
2022-11-18T01:55:22.896Z,960.62
2022-11-18T01:56:24.043Z,960.62
2022-11-18T01:56:54.966Z,960.51
2022-11-18T01:57:26.302Z,960.51
2022-11-18T01:57:56.933Z,960.68
2022-11-18T01:58:27.875Z,960.68
2022-11-18T01:58:58.977Z,960.41
2022-11-18T01:59:30.109Z,960.51
2022-11-18T02:00:06.893Z,960.51
2022-11-18T02:00:33.049Z,960.68
2022-11-18T02:01:03.144Z,960.68
2022-11-18T02:01:33.774Z,960.51
2022-11-18T02:02:04.914Z,960.51
2022-11-18T02:02:36.093Z,960.62
2022-11-18T02:03:06.706Z,960.62
2022-11-18T02:03:57.889Z,960.89
2022-11-18T02:04:09.096Z,960.89
2022-11-18T02:04:39.846Z,960.62
2022-11-18T02:05:44.043Z,960.62
2022-11-18T02:06:17.099Z,960.68
2022-11-18T02:07:15.074Z,960.62
2022-11-18T02:07:48.261Z,960.78
2022-11-18T02:08:17.226Z,960.78
2022-11-18T02:08:47.983Z,960.51
2022-11-18T02:09:19.027Z,960.51
2022-11-18T02:09:50.266Z,960.62
2022-11-18T02:10:22.107Z,960.62
2022-11-18T02:10:52.688Z,960.62
2022-11-18T02:11:23.026Z,960.62
2022-11-18T02:11:54.055Z,960.62
2022-11-18T02:12:24.846Z,960.62
2022-11-18T02:12:56.060Z,960.78
2022-11-18T02:13:26.940Z,960.78
2022-11-18T02:13:57.857Z,960.68
2022-11-18T02:14:28.640Z,960.89
2022-11-18T02:14:59.993Z,960.89
2022-11-18T02:15:31.745Z,960.68
2022-11-18T02:16:02.214Z,960.68
2022-11-18T02:16:32.785Z,960.68
2022-11-18T02:17:03.973Z,960.68
2022-11-18T02:17:34.562Z,960.78
2022-11-18T02:18:23.004Z,960.78
2022-11-18T02:18:37.019Z,960.62
2022-11-18T02:19:07.641Z,960.62
2022-11-18T02:19:38.985Z,960.78
2022-11-18T02:20:11.383Z,960.78
2022-11-18T02:20:41.639Z,960.78
2022-11-18T02:21:12.508Z,960.78
2022-11-18T02:21:42.958Z,960.78
2022-11-18T02:22:14.064Z,960.78
2022-11-18T02:22:44.733Z,960.68
2022-11-18T02:23:16.715Z,960.68
2022-11-18T02:23:47.238Z,960.89
2022-11-18T02:24:17.907Z,960.89
2022-11-18T02:24:48.642Z,960.99
2022-11-18T02:25:19.842Z,960.99
2022-11-18T02:25:52.059Z,960.68
2022-11-18T02:26:22.546Z,960.68
2022-11-18T02:27:09.878Z,960.68
2022-11-18T02:27:23.977Z,960.68
2022-11-18T02:27:55.015Z,960.78
2022-11-18T02:28:25.828Z,960.78
2022-11-18T02:28:57.271Z,960.68
2022-11-18T02:29:27.896Z,960.68
2022-11-18T02:29:58.975Z,960.78
2022-11-18T02:30:29.846Z,960.68
2022-11-18T02:31:02.104Z,960.68
2022-11-18T02:31:32.640Z,960.89
2022-11-18T02:32:02.930Z,960.89
2022-11-18T02:32:34.057Z,960.89
2022-11-18T02:33:05.073Z,960.89
2022-11-18T02:33:35.909Z,960.78
2022-11-18T02:34:07.240Z,960.78
2022-11-18T02:34:37.858Z,960.62
2022-11-18T02:35:09.120Z,960.62
2022-11-18T02:35:39.821Z,960.68
2022-11-18T02:36:12.271Z,960.68
2022-11-18T02:36:42.353Z,960.78
2022-11-18T02:37:13.245Z,960.78
2022-11-18T02:37:45.077Z,960.68
2022-11-18T02:38:19.991Z,960.68
2022-11-18T02:38:46.179Z,960.62
2022-11-18T02:39:22.393Z,960.62
2022-11-18T02:39:47.977Z,960.62
2022-11-18T02:40:19.045Z,960.62
2022-11-18T02:40:49.666Z,960.68
2022-11-18T02:41:21.866Z,960.68
2022-11-18T02:41:52.652Z,960.68
2022-11-18T02:42:23.337Z,960.68
2022-11-18T02:42:54.071Z,960.68
2022-11-18T02:43:24.936Z,960.68
2022-11-18T02:43:55.682Z,960.78
2022-11-18T02:44:27.347Z,960.78
2022-11-18T02:44:58.447Z,960.68
2022-11-18T02:45:29.245Z,960.78
2022-11-18T02:46:00.643Z,960.78
2022-11-18T02:46:31.640Z,960.68
2022-11-18T02:47:02.413Z,960.68
2022-11-18T02:47:32.964Z,960.78
2022-11-18T02:48:03.945Z,960.78
2022-11-18T02:48:34.881Z,960.78
2022-11-18T02:49:05.902Z,960.78
2022-11-18T02:49:36.891Z,960.68
2022-11-18T02:50:15.603Z,960.68
2022-11-18T02:50:38.895Z,960.99
2022-11-18T02:51:09.963Z,960.99
2022-11-18T02:51:41.997Z,960.89
2022-11-18T02:52:12.914Z,960.89
2022-11-18T02:52:43.020Z,960.99
2022-11-18T02:53:14.398Z,960.99
2022-11-18T02:53:44.838Z,960.99
2022-11-18T02:54:16.379Z,960.99
2022-11-18T02:54:47.295Z,960.89
2022-11-18T02:55:17.848Z,960.89
2022-11-18T02:55:49.049Z,960.99
2022-11-18T02:56:20.067Z,960.99
2022-11-18T02:57:08.404Z,960.99
2022-11-18T02:57:22.785Z,960.99
2022-11-18T02:57:53.392Z,961.09
2022-11-18T02:58:23.966Z,961.09
2022-11-18T02:58:54.972Z,960.89
2022-11-18T02:59:25.990Z,960.89
2022-11-18T02:59:57.343Z,961.09
2022-11-18T03:00:28.975Z,961.09
2022-11-18T03:00:58.835Z,960.78
2022-11-18T03:01:30.131Z,960.89
2022-11-18T03:02:01.876Z,960.89
2022-11-18T03:02:32.641Z,960.99
2022-11-18T03:03:20.100Z,960.99
2022-11-18T03:03:51.476Z,960.99
2022-11-18T03:04:05.338Z,960.99
2022-11-18T03:04:36.027Z,960.99
2022-11-18T03:05:07.484Z,960.99
2022-11-18T03:05:38.028Z,961.09
2022-11-18T03:06:14.499Z,961.09
2022-11-18T03:06:39.981Z,960.99
2022-11-18T03:07:12.223Z,960.99
2022-11-18T03:07:43.210Z,961.09
2022-11-18T03:08:14.308Z,961.09
2022-11-18T03:08:43.887Z,961.09
2022-11-18T03:09:33.224Z,961.19
2022-11-18T03:10:18.378Z,961.19
2022-11-18T03:10:48.343Z,961.09
2022-11-18T03:11:18.828Z,961.09
2022-11-18T03:11:50.020Z,960.99
2022-11-18T03:12:21.166Z,960.99
2022-11-18T03:12:52.294Z,960.99
2022-11-18T03:13:23.875Z,960.99
2022-11-18T03:13:54.403Z,960.99
2022-11-18T03:14:25.130Z,960.99
2022-11-18T03:14:55.951Z,960.99
2022-11-18T03:15:27.580Z,960.99
2022-11-18T03:15:58.143Z,961.09
2022-11-18T03:16:29.069Z,960.99
2022-11-18T03:17:31.300Z,960.99
2022-11-18T03:18:03.042Z,960.99
2022-11-18T03:18:33.571Z,960.99
2022-11-18T03:19:04.643Z,960.99
2022-11-18T03:19:34.823Z,961.09
2022-11-18T03:20:06.649Z,961.09
2022-11-18T03:20:37.225Z,961.09
2022-11-18T03:21:08.494Z,961.09
2022-11-18T03:21:39.101Z,961.29
2022-11-18T03:22:10.313Z,961.29
2022-11-18T03:22:46.667Z,960.99
2022-11-18T03:23:13.303Z,960.99
2022-11-18T03:23:43.388Z,961.19
2022-11-18T03:24:14.432Z,961.19
2022-11-18T03:24:44.884Z,961.29
2022-11-18T03:25:16.080Z,961.29
2022-11-18T03:25:47.679Z,961.29
2022-11-18T03:26:18.297Z,961.29
2022-11-18T03:26:49.214Z,961.19
2022-11-18T03:27:19.986Z,961.19
2022-11-18T03:27:51.480Z,961.29
2022-11-18T03:28:53.599Z,961.29
2022-11-18T03:29:24.127Z,961.29
2022-11-18T03:30:13.861Z,961.09
2022-11-18T03:30:26.086Z,961.09
2022-11-18T03:30:57.584Z,961.39
2022-11-18T03:31:28.080Z,961.39
2022-11-18T03:31:59.181Z,961.19
2022-11-18T03:32:30.118Z,961.19
2022-11-18T03:33:02.730Z,961.19
2022-11-18T03:33:33.077Z,961.29
2022-11-18T03:34:03.780Z,961.29
2022-11-18T03:34:34.299Z,961.19
2022-11-18T03:35:05.666Z,961.19
2022-11-18T03:35:36.272Z,961.19
2022-11-18T03:36:07.370Z,961.19
2022-11-18T03:36:38.163Z,961.39
2022-11-18T03:37:10.708Z,961.39
2022-11-18T03:37:57.810Z,961.09
2022-11-18T03:38:12.983Z,961.09
2022-11-18T03:38:59.253Z,961.19
2022-11-18T03:39:13.962Z,961.19
2022-11-18T03:39:43.977Z,961.29
2022-11-18T03:40:16.245Z,961.29
2022-11-18T03:40:46.838Z,961.60
2022-11-18T03:41:17.487Z,961.60
2022-11-18T03:41:49.088Z,961.39
2022-11-18T03:42:19.408Z,961.39
2022-11-18T03:42:50.442Z,961.19
2022-11-18T03:43:21.150Z,961.19
2022-11-18T03:44:08.278Z,961.09
2022-11-18T03:44:23.702Z,961.09
2022-11-18T03:44:54.491Z,961.29
2022-11-18T03:45:25.453Z,961.29
2022-11-18T03:45:55.920Z,961.29
2022-11-18T03:46:27.440Z,961.29
2022-11-18T03:46:58.239Z,961.19
2022-11-18T03:47:46.609Z,961.29
2022-11-18T03:48:00.458Z,961.29
2022-11-18T03:48:31.113Z,961.29
2022-11-18T03:49:02.972Z,961.29
2022-11-18T03:49:33.563Z,961.29
2022-11-18T03:50:05.530Z,961.29
2022-11-18T03:51:06.385Z,961.39
2022-11-18T03:51:37.506Z,961.29
2022-11-18T03:52:10.681Z,961.29
2022-11-18T03:52:39.368Z,961.39
2022-11-18T03:53:10.261Z,961.39
2022-11-18T03:53:41.012Z,961.50
2022-11-18T03:54:13.646Z,961.50
2022-11-18T03:54:43.777Z,961.39
2022-11-18T03:55:15.137Z,961.39
2022-11-18T03:55:45.195Z,961.60
2022-11-18T03:56:17.759Z,961.60
2022-11-18T03:56:47.639Z,961.60
2022-11-18T03:57:18.661Z,961.60
2022-11-18T03:57:49.064Z,961.39
2022-11-18T03:58:20.769Z,961.39
2022-11-18T03:58:51.227Z,961.39
2022-11-18T03:59:23.155Z,961.39
2022-11-18T03:59:53.916Z,961.39
2022-11-18T04:00:25.004Z,961.39
2022-11-18T04:00:55.366Z,961.50
2022-11-18T04:01:31.278Z,961.50
2022-11-18T04:01:57.996Z,961.39
2022-11-18T04:02:28.361Z,961.39
2022-11-18T04:02:59.398Z,961.50
2022-11-18T04:03:30.274Z,961.39
2022-11-18T04:04:01.404Z,961.39
2022-11-18T04:04:32.542Z,961.39
2022-11-18T04:05:04.553Z,961.39
2022-11-18T04:05:34.612Z,961.39
2022-11-18T04:06:05.267Z,961.39
2022-11-18T04:06:36.325Z,961.50
2022-11-18T04:07:07.666Z,961.50
2022-11-18T04:08:09.482Z,961.39
2022-11-18T04:08:40.368Z,961.39
2022-11-18T04:09:11.355Z,961.39
2022-11-18T04:09:42.924Z,961.60
2022-11-18T04:10:14.796Z,961.60
2022-11-18T04:10:44.586Z,961.39
2022-11-18T04:11:15.491Z,961.39
2022-11-18T04:11:46.473Z,961.39
2022-11-18T04:12:18.254Z,961.39
2022-11-18T04:12:48.593Z,961.50
2022-11-18T04:13:19.573Z,961.50
2022-11-18T04:13:50.371Z,961.60
2022-11-18T04:14:53.264Z,961.60
2022-11-18T04:15:24.202Z,961.60
2022-11-18T04:15:54.550Z,961.60
2022-11-18T04:16:25.892Z,961.60
2022-11-18T04:16:56.327Z,961.50
2022-11-18T04:17:27.572Z,961.50
2022-11-18T04:17:58.432Z,961.39
2022-11-18T04:18:29.349Z,961.70
2022-11-18T04:19:05.994Z,961.70
2022-11-18T04:19:31.298Z,961.50
2022-11-18T04:20:19.368Z,961.50
2022-11-18T04:20:33.889Z,961.60
2022-11-18T04:21:04.375Z,961.60
2022-11-18T04:21:35.766Z,961.39
2022-11-18T04:22:06.367Z,961.39
2022-11-18T04:22:37.355Z,961.39
2022-11-18T04:23:08.703Z,961.39
2022-11-18T04:23:39.598Z,961.50
2022-11-18T04:24:10.621Z,961.50
2022-11-18T04:24:41.195Z,961.70
2022-11-18T04:25:13.182Z,961.70
2022-11-18T04:25:44.160Z,961.50
2022-11-18T04:26:14.720Z,961.50
2022-11-18T04:27:16.380Z,961.60
2022-11-18T04:27:47.842Z,961.50
2022-11-18T04:28:18.407Z,961.50
2022-11-18T04:28:49.576Z,961.60
2022-11-18T04:29:20.534Z,961.60
2022-11-18T04:29:51.377Z,961.60
2022-11-18T04:30:24.490Z,961.60
2022-11-18T04:30:54.229Z,961.70
2022-11-18T04:31:25.277Z,961.70
2022-11-18T04:31:55.716Z,961.50
2022-11-18T04:32:26.744Z,961.50
2022-11-18T04:32:58.044Z,961.60
2022-11-18T04:33:29.175Z,961.60
2022-11-18T04:33:59.563Z,961.50
2022-11-18T04:34:30.472Z,961.60
2022-11-18T04:35:01.650Z,961.60
2022-11-18T04:35:32.977Z,961.70
2022-11-18T04:36:04.399Z,961.70
2022-11-18T04:36:34.638Z,961.60
2022-11-18T04:37:05.387Z,961.60
2022-11-18T04:37:37.368Z,961.60
2022-11-18T04:38:07.698Z,961.60
2022-11-18T04:38:38.385Z,961.39
2022-11-18T04:39:09.717Z,961.39
2022-11-18T04:39:40.526Z,961.60
2022-11-18T04:40:11.802Z,961.60
2022-11-18T04:40:43.206Z,961.60
2022-11-18T04:41:14.220Z,961.60
2022-11-18T04:41:44.958Z,961.70
2022-11-18T04:42:15.319Z,961.70
2022-11-18T04:42:46.283Z,961.70
2022-11-18T04:43:17.468Z,961.70
2022-11-18T04:43:49.498Z,961.70
2022-11-18T04:44:19.502Z,961.70
2022-11-18T04:44:51.357Z,961.80
2022-11-18T04:45:21.784Z,961.80
2022-11-18T04:45:53.067Z,961.70
2022-11-18T04:46:24.226Z,961.70
2022-11-18T04:46:54.855Z,961.70
2022-11-18T04:47:25.563Z,961.70
2022-11-18T04:48:01.983Z,961.70
2022-11-18T04:48:27.366Z,961.70
2022-11-18T04:48:58.327Z,961.80
2022-11-18T04:49:29.428Z,961.80
2022-11-18T04:50:15.252Z,961.80
2022-11-18T04:50:36.724Z,961.80
2022-11-18T04:51:02.803Z,961.80
2022-11-18T04:51:34.193Z,961.80
2022-11-18T04:52:35.393Z,961.70
2022-11-18T04:53:37.585Z,961.50
2022-11-18T04:54:08.339Z,961.50
2022-11-18T04:54:39.678Z,961.80
2022-11-18T04:55:10.806Z,961.80
2022-11-18T04:55:41.566Z,961.80
2022-11-18T04:56:12.750Z,961.80
2022-11-18T04:56:48.687Z,961.80
2022-11-18T04:57:15.822Z,961.80
2022-11-18T04:58:16.635Z,961.80
2022-11-18T04:58:47.990Z,961.70
2022-11-18T04:59:18.904Z,961.70
2022-11-18T04:59:49.695Z,961.80
2022-11-18T05:00:38.291Z,961.70
2022-11-18T05:00:51.628Z,961.70
2022-11-18T05:01:22.624Z,961.70
2022-11-18T05:01:53.557Z,961.80
2022-11-18T05:02:24.516Z,961.80
2022-11-18T05:02:56.247Z,961.80
2022-11-18T05:03:58.122Z,961.80
2022-11-18T05:04:29.218Z,961.80
2022-11-18T05:05:00.036Z,961.90
2022-11-18T05:05:30.593Z,962.00
2022-11-18T05:06:01.813Z,962.00
2022-11-18T05:06:47.609Z,961.80
2022-11-18T05:07:04.755Z,961.80
2022-11-18T05:07:34.355Z,961.90
2022-11-18T05:08:06.005Z,961.90
2022-11-18T05:08:37.444Z,962.00
2022-11-18T05:09:08.400Z,962.00
2022-11-18T05:09:39.217Z,961.80
2022-11-18T05:10:10.544Z,961.80
2022-11-18T05:10:40.378Z,961.80
2022-11-18T05:11:11.577Z,961.80
2022-11-18T05:11:42.525Z,962.00
2022-11-18T05:12:13.577Z,962.00
2022-11-18T05:12:44.491Z,961.90
2022-11-18T05:13:15.912Z,961.90
2022-11-18T05:14:03.835Z,962.00
2022-11-18T05:14:18.044Z,962.00
2022-11-18T05:14:50.814Z,962.21
2022-11-18T05:15:20.469Z,962.21
2022-11-18T05:15:50.749Z,962.00
2022-11-18T05:16:52.399Z,961.80
2022-11-18T05:17:23.742Z,961.80
2022-11-18T05:17:54.615Z,962.00
2022-11-18T05:18:26.097Z,962.00
2022-11-18T05:18:57.633Z,962.00
2022-11-18T05:19:28.226Z,962.00
2022-11-18T05:19:58.874Z,962.11
2022-11-18T05:20:40.187Z,962.00
2022-11-18T05:21:05.886Z,962.00
2022-11-18T05:21:31.642Z,962.31
2022-11-18T05:22:02.901Z,962.31
2022-11-18T05:22:33.659Z,962.11
2022-11-18T05:23:04.662Z,962.11
2022-11-18T05:23:35.469Z,962.00
2022-11-18T05:24:07.342Z,962.00
2022-11-18T05:24:38.486Z,962.00
2022-11-18T05:25:09.041Z,962.00
2022-11-18T05:25:39.659Z,962.00
2022-11-18T05:26:10.505Z,962.00
2022-11-18T05:26:41.679Z,962.21
2022-11-18T05:27:12.568Z,962.21
2022-11-18T05:27:43.440Z,962.11
2022-11-18T05:28:14.585Z,962.11
2022-11-18T05:28:46.370Z,961.90
2022-11-18T05:29:17.643Z,961.90
2022-11-18T05:29:48.278Z,962.21
2022-11-18T05:30:19.597Z,962.21
2022-11-18T05:30:50.365Z,962.11
2022-11-18T05:31:20.962Z,962.11
2022-11-18T05:32:09.385Z,962.00
2022-11-18T05:32:27.591Z,962.00
2022-11-18T05:32:53.737Z,962.11
2022-11-18T05:33:24.677Z,962.11
2022-11-18T05:33:56.767Z,962.11
2022-11-18T05:34:27.672Z,962.11
2022-11-18T05:34:58.382Z,962.11
2022-11-18T05:35:34.364Z,962.11
2022-11-18T05:35:59.955Z,962.00
2022-11-18T05:36:30.842Z,961.80
2022-11-18T05:37:01.871Z,961.80
2022-11-18T05:37:32.625Z,962.21
2022-11-18T05:38:04.025Z,962.21
2022-11-18T05:38:34.468Z,962.21
2022-11-18T05:39:06.177Z,962.21
2022-11-18T05:39:37.247Z,962.00
2022-11-18T05:40:09.031Z,962.00
2022-11-18T05:40:56.037Z,962.00
2022-11-18T05:41:09.659Z,962.00
2022-11-18T05:41:40.861Z,962.21
2022-11-18T05:42:11.827Z,962.21
2022-11-18T05:42:42.751Z,962.11
2022-11-18T05:43:13.682Z,962.11
2022-11-18T05:43:44.831Z,962.21
2022-11-18T05:44:16.477Z,962.21
2022-11-18T05:44:50.701Z,962.21
2022-11-18T05:45:19.246Z,962.21
2022-11-18T05:45:49.336Z,962.21
2022-11-18T05:46:19.999Z,962.21
2022-11-18T05:46:51.841Z,962.11
2022-11-18T05:47:21.559Z,962.11
2022-11-18T05:47:54.642Z,962.21
2022-11-18T05:48:24.080Z,962.21
2022-11-18T05:48:54.843Z,962.31
2022-11-18T05:49:26.859Z,962.31
2022-11-18T05:49:57.296Z,962.21
2022-11-18T05:50:28.377Z,962.21
2022-11-18T05:50:59.306Z,962.21
2022-11-18T05:51:29.755Z,962.31
2022-11-18T05:52:00.842Z,962.31
2022-11-18T05:52:31.721Z,962.21
2022-11-18T05:53:03.027Z,962.21
2022-11-18T05:53:34.064Z,962.21
2022-11-18T05:54:04.767Z,962.21
2022-11-18T05:54:37.420Z,962.31
2022-11-18T05:55:08.104Z,962.31
2022-11-18T05:55:38.311Z,962.31
2022-11-18T05:56:08.794Z,962.31
2022-11-18T05:56:39.955Z,962.31
2022-11-18T05:57:10.900Z,962.31
2022-11-18T05:57:41.777Z,962.31
2022-11-18T05:58:12.844Z,962.31
2022-11-18T05:58:48.757Z,962.31
2022-11-18T05:59:15.082Z,962.31
2022-11-18T05:59:46.557Z,962.31
2022-11-18T06:00:20.052Z,962.31
2022-11-18T06:00:48.299Z,962.41
2022-11-18T06:01:19.089Z,962.41
2022-11-18T06:01:50.015Z,962.41
2022-11-18T06:02:20.726Z,962.41
2022-11-18T06:02:51.789Z,962.31
2022-11-18T06:03:27.533Z,962.31
2022-11-18T06:03:53.904Z,962.41
2022-11-18T06:04:24.976Z,962.41
2022-11-18T06:04:56.362Z,962.41
2022-11-18T06:05:27.315Z,962.41
2022-11-18T06:05:58.267Z,962.51
2022-11-18T06:06:29.127Z,962.41
2022-11-18T06:07:00.010Z,962.41
2022-11-18T06:07:48.512Z,962.31
2022-11-18T06:08:01.812Z,962.31
2022-11-18T06:08:32.800Z,962.31
2022-11-18T06:09:03.561Z,962.31
2022-11-18T06:09:34.755Z,962.51
2022-11-18T06:10:06.509Z,962.51
2022-11-18T06:10:37.895Z,962.61
2022-11-18T06:11:08.339Z,962.61
2022-11-18T06:11:39.049Z,962.61
2022-11-18T06:12:10.131Z,962.61
2022-11-18T06:12:40.975Z,962.41
2022-11-18T06:13:12.114Z,962.41
2022-11-18T06:14:21.800Z,962.51
2022-11-18T06:14:44.841Z,962.51
2022-11-18T06:15:16.856Z,962.51
2022-11-18T06:16:03.973Z,962.41
2022-11-18T06:16:27.401Z,962.41
2022-11-18T06:16:58.852Z,962.51
2022-11-18T06:17:33.716Z,962.51
2022-11-18T06:17:50.931Z,962.61
2022-11-18T06:18:22.702Z,962.61
2022-11-18T06:18:52.836Z,962.51
2022-11-18T06:20:00.048Z,962.41
2022-11-18T06:20:26.617Z,962.41
2022-11-18T06:20:57.660Z,962.41
2022-11-18T06:21:59.299Z,962.31
2022-11-18T06:22:29.889Z,962.31
2022-11-18T06:23:01.150Z,962.31
2022-11-18T06:23:31.701Z,962.31
2022-11-18T06:24:02.829Z,962.31
2022-11-18T06:24:33.709Z,962.51
2022-11-18T06:25:05.540Z,962.51
2022-11-18T06:25:53.207Z,962.71
2022-11-18T06:26:07.867Z,962.71
2022-11-18T06:26:37.869Z,962.51
2022-11-18T06:27:09.367Z,962.51
2022-11-18T06:27:39.863Z,962.41
2022-11-18T06:28:11.039Z,962.41
2022-11-18T06:28:42.067Z,962.61
2022-11-18T06:29:13.049Z,962.61
2022-11-18T06:29:44.915Z,962.61
2022-11-18T06:30:16.678Z,962.61
2022-11-18T06:30:46.657Z,962.78
2022-11-18T06:31:16.802Z,962.78
2022-11-18T06:31:48.181Z,962.51
2022-11-18T06:32:18.976Z,962.51
2022-11-18T06:32:49.820Z,962.71
2022-11-18T06:33:21.133Z,962.71
2022-11-18T06:34:09.572Z,962.61
2022-11-18T06:34:22.732Z,962.61
2022-11-18T06:34:55.222Z,962.71
2022-11-18T06:35:26.976Z,962.71
2022-11-18T06:35:56.819Z,962.88
2022-11-18T06:36:27.490Z,962.88
2022-11-18T06:36:58.211Z,962.71
2022-11-18T06:37:29.150Z,962.78
2022-11-18T06:38:00.006Z,962.78
2022-11-18T06:38:31.129Z,962.61
2022-11-18T06:39:01.887Z,962.61
2022-11-18T06:39:32.981Z,962.88